الصفحة الرئيسية
METAR-TAF:

METAR-TAF

مطار :

مطار الجوف المحلي

سكاكا, السعودية

دائرة عرض: 29-47N, خط طول: 040-06E, ارتفاع: 689 متر

مراقبة الطقس الحالي

تاريخ ووقت الإصدار 37 دقيقة قبل الساعة 01:00UTC
ريح 3 عقدة من الشمال/الشمال الشرقي
درجة الحرارة 24°درجة مئوية
الرطوبة 14%
ضغط 1015 hPa
الرؤية 10 كم أو أكثر
الغيوم لا تقل 1500 م ولا وجود لمزنة ركامية السحاب الأسود

METAR: OESK 270100Z 03003KT CAVOK 24/M05 Q1015 NOSIG

زمن: 04:37 (01:37 UTC)

توقعات

تاريخ ووقت الإصدار 2ساعات و 37 دقيقة قبل الساعة 23:00UTC
التوقعات صالحة من27 الساعة 00 UTC إلى 28 الساعة 06 UTC
ريح 3 عقدةمن اتجاهات متغيرة
الرؤية 10 كم أو أكثر
الغيوم لا تقل 1500 م ولا وجود لمزنة ركامية السحاب الأسود
أصبح
من 27 الساعة 08 UTC إلى 27 الساعة 10 UTC
ريح 12 عقدة من الجنوب الغربي
أصبح
من 27 الساعة 18 UTC إلى 27 الساعة 20 UTC
ريح 6 عقدة من الشمال

TAF: OESK 262300Z 2700/2806 VRB03KT CAVOK BECMG 2708/2710 23012KT BECMG 2718/2720 36006KT

أرصاد الطقس والتوقعات من أكثر من 4000 مطار (تقارير الطقس للمطار METAR والتنبؤ بالطقس بالمطارTAF).

المحطات المتاحة هي النقط الصفراء والحمراء على الخريطة.

حرك المؤشر فوق النقطة لمعرفة اسم المحطة.

ثم انقر لمعرفة أرصاد وتوقعات الطقس.

لتغيير الخارطة: اضغط على الأزرار الخضراء مع رمز الصليب الأسود للتكبير. على الزر الأخضر مع شرطة للتصغير، أو على الأسهم الخضراء للخرائط المجاورة.


METAR-TAF: